sensor_id;sensor_type;location;lat;lon;timestamp;pressure;altitude;pressure_sealevel;temperature;humidity
78855;BME280;68206;59.956;30.234;2024-01-30T00:00:01;102312.25;;;9.69;43.96
78855;BME280;68206;59.956;30.234;2024-01-30T00:02:30;102311.38;;;9.68;44.35
78855;BME280;68206;59.956;30.234;2024-01-30T00:04:59;102312.28;;;9.67;44.21
78855;BME280;68206;59.956;30.234;2024-01-30T00:07:27;102323.78;;;9.68;43.77
78855;BME280;68206;59.956;30.234;2024-01-30T00:09:56;102312.28;;;9.67;44.31
78855;BME280;68206;59.956;30.234;2024-01-30T00:12:24;102308.75;;;9.67;44.50
78855;BME280;68206;59.956;30.234;2024-01-30T00:14:53;102313.16;;;9.63;44.10
78855;BME280;68206;59.956;30.234;2024-01-30T00:17:23;102318.47;;;9.66;43.99
78855;BME280;68206;59.956;30.234;2024-01-30T00:19:53;102319.34;;;9.67;44.12
78855;BME280;68206;59.956;30.234;2024-01-30T00:22:22;102328.19;;;9.66;44.07
78855;BME280;68206;59.956;30.234;2024-01-30T00:24:52;102321.13;;;9.65;44.58
78855;BME280;68206;59.956;30.234;2024-01-30T00:27:21;102327.28;;;9.65;44.60
78855;BME280;68206;59.956;30.234;2024-01-30T00:29:50;102325.53;;;9.64;44.39
78855;BME280;68206;59.956;30.234;2024-01-30T00:32:18;102329.94;;;9.64;44.14
78855;BME280;68206;59.956;30.234;2024-01-30T00:34:48;102334.34;;;9.62;44.24
78855;BME280;68206;59.956;30.234;2024-01-30T00:37:17;102344.06;;;9.63;44.40
78855;BME280;68206;59.956;30.234;2024-01-30T00:39:45;102343.16;;;9.62;44.68
78855;BME280;68206;59.956;30.234;2024-01-30T00:42:13;102337.00;;;9.62;44.16
78855;BME280;68206;59.956;30.234;2024-01-30T00:44:43;102341.44;;;9.61;44.23
78855;BME280;68206;59.956;30.234;2024-01-30T00:47:11;102341.44;;;9.60;44.10
78855;BME280;68206;59.956;30.234;2024-01-30T00:49:39;102339.66;;;9.60;44.89
78855;BME280;68206;59.956;30.234;2024-01-30T00:52:09;102348.50;;;9.59;44.60
78855;BME280;68206;59.956;30.234;2024-01-30T00:54:39;102352.91;;;9.59;44.12
78855;BME280;68206;59.956;30.234;2024-01-30T00:57:07;102352.00;;;9.57;44.14
78855;BME280;68206;59.956;30.234;2024-01-30T00:59:36;102355.53;;;9.57;44.21
78855;BME280;68206;59.956;30.234;2024-01-30T01:02:04;102353.75;;;9.56;44.78
78855;BME280;68206;59.956;30.234;2024-01-30T01:04:34;102352.03;;;9.55;44.34
78855;BME280;68206;59.956;30.234;2024-01-30T01:07:02;102352.88;;;9.56;44.23
78855;BME280;68206;59.956;30.234;2024-01-30T01:09:37;102355.56;;;9.54;44.39
78855;BME280;68206;59.956;30.234;2024-01-30T01:12:12;102359.97;;;9.54;44.17
78855;BME280;68206;59.956;30.234;2024-01-30T01:14:40;102365.25;;;9.54;44.52
78855;BME280;68206;59.956;30.234;2024-01-30T01:17:09;102369.66;;;9.53;44.68
78855;BME280;68206;59.956;30.234;2024-01-30T01:19:38;102363.47;;;9.51;44.50
78855;BME280;68206;59.956;30.234;2024-01-30T01:22:06;102377.59;;;9.52;44.64
78855;BME280;68206;59.956;30.234;2024-01-30T01:24:36;102388.19;;;9.52;44.85
78855;BME280;68206;59.956;30.234;2024-01-30T01:27:05;102391.72;;;9.51;44.10
78855;BME280;68206;59.956;30.234;2024-01-30T01:29:33;102388.19;;;9.50;44.11
78855;BME280;68206;59.956;30.234;2024-01-30T01:32:02;102383.78;;;9.48;44.49
78855;BME280;68206;59.956;30.234;2024-01-30T01:34:30;102389.94;;;9.50;44.88
78855;BME280;68206;59.956;30.234;2024-01-30T01:36:59;102390.88;;;9.49;44.44
78855;BME280;68206;59.956;30.234;2024-01-30T01:39:27;102384.66;;;9.47;44.18
78855;BME280;68206;59.956;30.234;2024-01-30T01:41:57;102393.50;;;9.47;44.61
78855;BME280;68206;59.956;30.234;2024-01-30T01:44:27;102396.13;;;9.46;44.29
78855;BME280;68206;59.956;30.234;2024-01-30T01:46:56;102404.09;;;9.46;44.21
78855;BME280;68206;59.956;30.234;2024-01-30T01:49:27;102410.25;;;9.43;44.30
78855;BME280;68206;59.956;30.234;2024-01-30T01:51:58;102412.91;;;9.40;44.80
78855;BME280;68206;59.956;30.234;2024-01-30T01:54:28;102428.78;;;9.43;44.69
78855;BME280;68206;59.956;30.234;2024-01-30T01:56:59;102435.88;;;9.43;44.60
78855;BME280;68206;59.956;30.234;2024-01-30T01:59:29;102427.03;;;9.41;44.53
78855;BME280;68206;59.956;30.234;2024-01-30T02:01:57;102424.38;;;9.41;44.13
78855;BME280;68206;59.956;30.234;2024-01-30T02:04:26;102421.72;;;9.39;44.61
78855;BME280;68206;59.956;30.234;2024-01-30T02:06:55;102426.16;;;9.40;44.58
78855;BME280;68206;59.956;30.234;2024-01-30T02:09:23;102434.97;;;9.39;44.55
78855;BME280;68206;59.956;30.234;2024-01-30T02:11:52;102429.66;;;9.39;44.64
78855;BME280;68206;59.956;30.234;2024-01-30T02:14:22;102437.59;;;9.39;44.36
78855;BME280;68206;59.956;30.234;2024-01-30T02:16:53;102434.94;;;9.38;44.61
78855;BME280;68206;59.956;30.234;2024-01-30T02:19:21;102440.25;;;9.38;44.65
78855;BME280;68206;59.956;30.234;2024-01-30T02:21:51;102440.25;;;9.38;44.64
78855;BME280;68206;59.956;30.234;2024-01-30T02:24:20;102448.19;;;9.38;44.44
78855;BME280;68206;59.956;30.234;2024-01-30T02:26:49;102450.84;;;9.38;44.14
78855;BME280;68206;59.956;30.234;2024-01-30T02:29:18;102443.81;;;9.37;44.55
78855;BME280;68206;59.956;30.234;2024-01-30T02:31:46;102452.63;;;9.36;44.48
78855;BME280;68206;59.956;30.234;2024-01-30T02:34:14;102444.69;;;9.36;44.85
78855;BME280;68206;59.956;30.234;2024-01-30T02:36:43;102447.31;;;9.36;44.49
78855;BME280;68206;59.956;30.234;2024-01-30T02:39:13;102451.72;;;9.35;44.59
78855;BME280;68206;59.956;30.234;2024-01-30T02:41:41;102452.63;;;9.36;44.58
78855;BME280;68206;59.956;30.234;2024-01-30T02:44:10;102447.31;;;9.34;44.64
78855;BME280;68206;59.956;30.234;2024-01-30T02:46:39;102449.06;;;9.34;44.62
78855;BME280;68206;59.956;30.234;2024-01-30T02:49:07;102456.16;;;9.35;44.50
78855;BME280;68206;59.956;30.234;2024-01-30T02:51:36;102454.38;;;9.34;44.75
78855;BME280;68206;59.956;30.234;2024-01-30T02:54:04;102457.00;;;9.34;44.80
78855;BME280;68206;59.956;30.234;2024-01-30T02:56:34;102469.38;;;9.33;44.50
78855;BME280;68206;59.956;30.234;2024-01-30T02:59:02;102457.00;;;9.32;44.45
78855;BME280;68206;59.956;30.234;2024-01-30T03:01:31;102459.66;;;9.32;44.73
78855;BME280;68206;59.956;30.234;2024-01-30T03:04:01;102462.31;;;9.30;45.12
78855;BME280;68206;59.956;30.234;2024-01-30T03:06:29;102457.00;;;9.29;44.52
78855;BME280;68206;59.956;30.234;2024-01-30T03:08:58;102464.94;;;9.29;44.73
78855;BME280;68206;59.956;30.234;2024-01-30T03:11:26;102481.72;;;9.29;44.38
78855;BME280;68206;59.956;30.234;2024-01-30T03:13:56;102488.75;;;9.27;44.79
78855;BME280;68206;59.956;30.234;2024-01-30T03:16:25;102479.06;;;9.28;44.78
78855;BME280;68206;59.956;30.234;2024-01-30T03:18:53;102478.19;;;9.27;44.70
78855;BME280;68206;59.956;30.234;2024-01-30T03:21:22;102477.28;;;9.27;44.60
78855;BME280;68206;59.956;30.234;2024-01-30T03:23:50;102484.34;;;9.26;45.30
78855;BME280;68206;59.956;30.234;2024-01-30T03:26:18;102490.50;;;9.25;44.69
78855;BME280;68206;59.956;30.234;2024-01-30T03:28:47;102498.44;;;9.25;44.93
78855;BME280;68206;59.956;30.234;2024-01-30T03:31:17;102501.97;;;9.24;45.12
78855;BME280;68206;59.956;30.234;2024-01-30T03:33:46;102512.56;;;9.24;44.70
78855;BME280;68206;59.956;30.234;2024-01-30T03:36:15;102508.16;;;9.22;44.96
78855;BME280;68206;59.956;30.234;2024-01-30T03:38:44;102499.34;;;9.21;44.89
78855;BME280;68206;59.956;30.234;2024-01-30T03:41:12;102500.22;;;9.22;45.15
78855;BME280;68206;59.956;30.234;2024-01-30T03:43:40;102493.13;;;9.19;44.59
78855;BME280;68206;59.956;30.234;2024-01-30T03:46:09;102494.03;;;9.20;45.28
78855;BME280;68206;59.956;30.234;2024-01-30T03:48:41;102496.66;;;9.20;44.70
78855;BME280;68206;59.956;30.234;2024-01-30T03:51:09;102494.00;;;9.18;45.20
78855;BME280;68206;59.956;30.234;2024-01-30T03:53:42;102496.66;;;9.18;44.82
78855;BME280;68206;59.956;30.234;2024-01-30T03:56:12;102500.22;;;9.17;45.03
78855;BME280;68206;59.956;30.234;2024-01-30T03:58:42;102501.97;;;9.17;44.84
78855;BME280;68206;59.956;30.234;2024-01-30T04:01:13;102497.56;;;9.17;44.83
78855;BME280;68206;59.956;30.234;2024-01-30T04:03:43;102496.66;;;9.15;44.98
78855;BME280;68206;59.956;30.234;2024-01-30T04:06:12;102483.41;;;9.15;44.86
78855;BME280;68206;59.956;30.234;2024-01-30T04:08:41;102488.72;;;9.15;44.68
78855;BME280;68206;59.956;30.234;2024-01-30T04:11:09;102489.59;;;9.11;45.05
78855;BME280;68206;59.956;30.234;2024-01-30T04:13:37;102492.22;;;9.14;44.88
78855;BME280;68206;59.956;30.234;2024-01-30T04:16:06;102490.47;;;9.13;44.76
78855;BME280;68206;59.956;30.234;2024-01-30T04:18:35;102494.00;;;9.11;45.05
78855;BME280;68206;59.956;30.234;2024-01-30T04:21:05;102492.25;;;9.11;45.05
78855;BME280;68206;59.956;30.234;2024-01-30T04:23:33;102491.34;;;9.11;44.90
78855;BME280;68206;59.956;30.234;2024-01-30T04:26:02;102481.66;;;9.11;44.88
78855;BME280;68206;59.956;30.234;2024-01-30T04:28:30;102476.28;;;9.02;45.59
78855;BME280;68206;59.956;30.234;2024-01-30T04:31:00;102474.44;;;8.84;45.91
78855;BME280;68206;59.956;30.234;2024-01-30T04:33:28;102479.63;;;8.66;46.61
78855;BME280;68206;59.956;30.234;2024-01-30T04:35:56;102484.84;;;8.56;46.85
78855;BME280;68206;59.956;30.234;2024-01-30T04:38:27;102485.72;;;8.56;47.54
78855;BME280;68206;59.956;30.234;2024-01-30T04:40:56;102483.13;;;8.61;48.12
78855;BME280;68206;59.956;30.234;2024-01-30T04:43:24;102488.38;;;8.55;48.69
78855;BME280;68206;59.956;30.234;2024-01-30T04:45:53;102483.88;;;8.41;48.63
78855;BME280;68206;59.956;30.234;2024-01-30T04:48:21;102475.78;;;8.28;48.72
78855;BME280;68206;59.956;30.234;2024-01-30T04:50:50;102480.97;;;8.16;48.76
78855;BME280;68206;59.956;30.234;2024-01-30T04:53:18;102474.69;;;8.01;48.87
78855;BME280;68206;59.956;30.234;2024-01-30T04:55:48;102486.03;;;7.91;49.59
78855;BME280;68206;59.956;30.234;2024-01-30T04:58:16;102482.41;;;7.82;49.28
78855;BME280;68206;59.956;30.234;2024-01-30T05:00:45;102489.38;;;7.72;49.44
78855;BME280;68206;59.956;30.234;2024-01-30T05:03:18;102493.66;;;7.62;49.92
78855;BME280;68206;59.956;30.234;2024-01-30T05:05:49;102490.03;;;7.53;50.57
78855;BME280;68206;59.956;30.234;2024-01-30T05:08:18;102501.38;;;7.46;50.95
78855;BME280;68206;59.956;30.234;2024-01-30T05:10:47;102493.38;;;7.37;51.02
78855;BME280;68206;59.956;30.234;2024-01-30T05:13:17;102503.84;;;7.29;51.43
78855;BME280;68206;59.956;30.234;2024-01-30T05:15:45;102502.00;;;7.23;50.67
78855;BME280;68206;59.956;30.234;2024-01-30T05:18:14;102515.97;;;7.15;51.67
78855;BME280;68206;59.956;30.234;2024-01-30T05:20:43;102519.44;;;7.11;51.05
78855;BME280;68206;59.956;30.234;2024-01-30T05:23:11;102531.66;;;7.04;51.52
78855;BME280;68206;59.956;30.234;2024-01-30T05:25:39;102532.44;;;7.00;51.37
78855;BME280;68206;59.956;30.234;2024-01-30T05:28:09;102545.59;;;6.96;52.09
78855;BME280;68206;59.956;30.234;2024-01-30T05:30:38;102546.41;;;6.92;51.48
78855;BME280;68206;59.956;30.234;2024-01-30T05:33:08;102552.50;;;6.86;51.62
78855;BME280;68206;59.956;30.234;2024-01-30T05:35:37;102542.78;;;6.83;52.48
78855;BME280;68206;59.956;30.234;2024-01-30T05:38:05;102541.78;;;6.77;52.64
78855;BME280;68206;59.956;30.234;2024-01-30T05:40:34;102554.06;;;6.75;52.52
78855;BME280;68206;59.956;30.234;2024-01-30T05:43:02;102560.34;;;6.83;52.40
78855;BME280;68206;59.956;30.234;2024-01-30T05:45:32;102557.84;;;6.92;51.83
78855;BME280;68206;59.956;30.234;2024-01-30T05:48:02;102565.06;;;7.04;51.59
78855;BME280;68206;59.956;30.234;2024-01-30T05:50:31;102565.19;;;7.14;51.59
78855;BME280;68206;59.956;30.234;2024-01-30T05:52:59;102558.31;;;7.25;51.13
78855;BME280;68206;59.956;30.234;2024-01-30T05:55:28;102561.97;;;7.35;50.24
78855;BME280;68206;59.956;30.234;2024-01-30T05:57:56;102561.19;;;7.42;49.75
78855;BME280;68206;59.956;30.234;2024-01-30T06:00:25;102563.94;;;7.51;50.06
78855;BME280;68206;59.956;30.234;2024-01-30T06:02:55;102557.88;;;7.58;50.40
78855;BME280;68206;59.956;30.234;2024-01-30T06:05:24;102557.97;;;7.66;49.47
78855;BME280;68206;59.956;30.234;2024-01-30T06:07:52;102570.34;;;7.72;49.07
78855;BME280;68206;59.956;30.234;2024-01-30T06:10:21;102566.91;;;7.79;49.70
78855;BME280;68206;59.956;30.234;2024-01-30T06:12:49;102567.84;;;7.84;48.65
78855;BME280;68206;59.956;30.234;2024-01-30T06:15:18;102567.00;;;7.88;48.91
78855;BME280;68206;59.956;30.234;2024-01-30T06:17:46;102567.06;;;7.94;48.37
78855;BME280;68206;59.956;30.234;2024-01-30T06:20:17;102558.31;;;7.98;48.18
78855;BME280;68206;59.956;30.234;2024-01-30T06:22:45;102561.88;;;8.03;48.19
78855;BME280;68206;59.956;30.234;2024-01-30T06:25:14;102555.75;;;8.07;48.17
78855;BME280;68206;59.956;30.234;2024-01-30T06:27:44;102562.84;;;8.09;48.16
78855;BME280;68206;59.956;30.234;2024-01-30T06:30:13;102565.53;;;8.14;48.07
78855;BME280;68206;59.956;30.234;2024-01-30T06:32:42;102566.44;;;8.16;48.37
78855;BME280;68206;59.956;30.234;2024-01-30T06:35:10;102577.94;;;8.21;47.58
78855;BME280;68206;59.956;30.234;2024-01-30T06:37:41;102585.91;;;8.24;47.49
78855;BME280;68206;59.956;30.234;2024-01-30T06:40:10;102584.16;;;8.28;47.43
78855;BME280;68206;59.956;30.234;2024-01-30T06:42:38;102578.91;;;8.31;47.63
78855;BME280;68206;59.956;30.234;2024-01-30T06:45:09;102578.97;;;8.34;47.55
78855;BME280;68206;59.956;30.234;2024-01-30T06:47:37;102587.81;;;8.39;47.71
78855;BME280;68206;59.956;30.234;2024-01-30T06:50:07;102590.50;;;8.42;47.50
78855;BME280;68206;59.956;30.234;2024-01-30T06:52:35;102591.38;;;8.44;47.50
78855;BME280;68206;59.956;30.234;2024-01-30T06:55:06;102593.22;;;8.48;47.03
78855;BME280;68206;59.956;30.234;2024-01-30T06:57:34;102603.78;;;8.51;47.19
78855;BME280;68206;59.956;30.234;2024-01-30T07:00:04;102593.25;;;8.53;47.38
78855;BME280;68206;59.956;30.234;2024-01-30T07:02:32;102595.03;;;8.57;46.86
78855;BME280;68206;59.956;30.234;2024-01-30T07:05:01;102593.28;;;8.59;46.99
78855;BME280;68206;59.956;30.234;2024-01-30T07:07:29;102595.97;;;8.60;46.97
78855;BME280;68206;59.956;30.234;2024-01-30T07:09:58;102603.00;;;8.63;47.16
78855;BME280;68206;59.956;30.234;2024-01-30T07:12:28;102603.03;;;8.64;46.74
78855;BME280;68206;59.956;30.234;2024-01-30T07:14:58;102598.66;;;8.66;46.54
78855;BME280;68206;59.956;30.234;2024-01-30T07:17:28;102598.69;;;8.68;46.89
78855;BME280;68206;59.956;30.234;2024-01-30T07:19:56;102599.59;;;8.73;46.76
78855;BME280;68206;59.956;30.234;2024-01-30T07:22:25;102608.41;;;8.75;46.60
78855;BME280;68206;59.956;30.234;2024-01-30T07:24:54;102594.31;;;8.76;46.48
78855;BME280;68206;59.956;30.234;2024-01-30T07:27:22;102598.78;;;8.80;46.66
78855;BME280;68206;59.956;30.234;2024-01-30T07:29:52;102602.31;;;8.80;46.50
78855;BME280;68206;59.956;30.234;2024-01-30T07:32:21;102599.69;;;8.85;46.35
78855;BME280;68206;59.956;30.234;2024-01-30T07:34:49;102597.03;;;8.88;46.51
78855;BME280;68206;59.956;30.234;2024-01-30T07:37:33;102604.16;;;8.92;46.41
78855;BME280;68206;59.956;30.234;2024-01-30T07:40:02;102598.00;;;8.93;46.50
78855;BME280;68206;59.956;30.234;2024-01-30T07:42:31;102601.50;;;8.95;46.42
78855;BME280;68206;59.956;30.234;2024-01-30T07:45:01;102597.16;;;8.99;46.15
78855;BME280;68206;59.956;30.234;2024-01-30T07:47:30;102598.91;;;9.01;46.16
78855;BME280;68206;59.956;30.234;2024-01-30T07:49:58;102596.28;;;9.04;46.58
78855;BME280;68206;59.956;30.234;2024-01-30T07:52:27;102591.88;;;9.06;45.99
78855;BME280;68206;59.956;30.234;2024-01-30T07:54:56;102591.91;;;9.09;46.16
78855;BME280;68206;59.956;30.234;2024-01-30T07:57:24;102591.03;;;9.13;46.29
78855;BME280;68206;59.956;30.234;2024-01-30T07:59:53;102593.72;;;9.16;45.94
78855;BME280;68206;59.956;30.234;2024-01-30T08:02:23;102603.44;;;9.20;45.93
78855;BME280;68206;59.956;30.234;2024-01-30T08:04:51;102604.34;;;9.22;45.93
78855;BME280;68206;59.956;30.234;2024-01-30T08:07:20;102606.13;;;9.26;46.06
78855;BME280;68206;59.956;30.234;2024-01-30T08:09:49;102615.00;;;9.30;45.72
78855;BME280;68206;59.956;30.234;2024-01-30T08:12:18;102599.97;;;9.32;45.43
78855;BME280;68206;59.956;30.234;2024-01-30T08:14:46;102606.19;;;9.36;45.07
78855;BME280;68206;59.956;30.234;2024-01-30T08:17:17;102609.72;;;9.38;45.27
78855;BME280;68206;59.956;30.234;2024-01-30T08:19:47;102609.75;;;9.41;45.74
78855;BME280;68206;59.956;30.234;2024-01-30T08:22:15;102600.03;;;9.40;45.23
78855;BME280;68206;59.956;30.234;2024-01-30T08:24:44;102612.41;;;9.44;45.00
78855;BME280;68206;59.956;30.234;2024-01-30T08:27:14;102606.22;;;9.45;45.45
78855;BME280;68206;59.956;30.234;2024-01-30T08:29:42;102606.25;;;9.48;45.46
78855;BME280;68206;59.956;30.234;2024-01-30T08:32:11;102608.03;;;9.49;45.44
78855;BME280;68206;59.956;30.234;2024-01-30T08:34:39;102595.66;;;9.51;44.95
78855;BME280;68206;59.956;30.234;2024-01-30T08:37:10;102593.91;;;9.53;45.26
78855;BME280;68206;59.956;30.234;2024-01-30T08:39:38;102605.41;;;9.55;44.96
78855;BME280;68206;59.956;30.234;2024-01-30T08:42:07;102601.88;;;9.56;45.13
78855;BME280;68206;59.956;30.234;2024-01-30T08:44:35;102608.94;;;9.57;44.58
78855;BME280;68206;59.956;30.234;2024-01-30T08:47:04;102606.28;;;9.57;44.92
78855;BME280;68206;59.956;30.234;2024-01-30T08:49:33;102608.09;;;9.59;45.00
78855;BME280;68206;59.956;30.234;2024-01-30T08:52:01;102610.72;;;9.59;44.88
78855;BME280;68206;59.956;30.234;2024-01-30T08:54:31;102617.78;;;9.62;44.66
78855;BME280;68206;59.956;30.234;2024-01-30T08:57:02;102614.25;;;9.63;44.65
78855;BME280;68206;59.956;30.234;2024-01-30T08:59:31;102611.63;;;9.64;44.88
78855;BME280;68206;59.956;30.234;2024-01-30T09:02:00;102615.19;;;9.66;45.12
78855;BME280;68206;59.956;30.234;2024-01-30T09:04:38;102615.19;;;9.66;44.76
78855;BME280;68206;59.956;30.234;2024-01-30T09:07:08;102621.34;;;9.68;44.33
78855;BME280;68206;59.956;30.234;2024-01-30T09:09:39;102617.84;;;9.71;44.49
78855;BME280;68206;59.956;30.234;2024-01-30T09:12:08;102616.97;;;9.72;44.55
78855;BME280;68206;59.956;30.234;2024-01-30T09:14:40;102611.69;;;9.74;44.81
78855;BME280;68206;59.956;30.234;2024-01-30T09:17:09;102617.88;;;9.74;44.30
78855;BME280;68206;59.956;30.234;2024-01-30T09:19:38;102612.56;;;9.74;44.53
78855;BME280;68206;59.956;30.234;2024-01-30T09:22:06;102628.44;;;9.76;44.36
78855;BME280;68206;59.956;30.234;2024-01-30T09:24:35;102629.34;;;9.76;44.18
78855;BME280;68206;59.956;30.234;2024-01-30T09:27:05;102641.72;;;9.77;44.11
78855;BME280;68206;59.956;30.234;2024-01-30T09:29:33;102634.66;;;9.78;44.44
78855;BME280;68206;59.956;30.234;2024-01-30T09:32:04;102640.81;;;9.75;43.82
78855;BME280;68206;59.956;30.234;2024-01-30T09:34:33;102648.81;;;9.80;43.79
78855;BME280;68206;59.956;30.234;2024-01-30T09:37:02;102647.03;;;9.80;44.33
78855;BME280;68206;59.956;30.234;2024-01-30T09:39:31;102648.78;;;9.81;44.65
78855;BME280;68206;59.956;30.234;2024-01-30T09:42:04;102639.97;;;9.84;44.23
78855;BME280;68206;59.956;30.234;2024-01-30T09:44:35;102649.72;;;9.86;44.39
78855;BME280;68206;59.956;30.234;2024-01-30T09:47:07;102646.16;;;9.87;44.04
78855;BME280;68206;59.956;30.234;2024-01-30T09:49:36;102642.66;;;9.90;43.98
78855;BME280;68206;59.956;30.234;2024-01-30T09:52:08;102644.44;;;9.92;44.33
78855;BME280;68206;59.956;30.234;2024-01-30T09:54:38;102642.69;;;9.96;44.42
78855;BME280;68206;59.956;30.234;2024-01-30T09:57:06;102639.16;;;10.00;43.73
78855;BME280;68206;59.956;30.234;2024-01-30T09:59:36;102642.72;;;10.03;43.62
78855;BME280;68206;59.956;30.234;2024-01-30T10:02:07;102636.53;;;10.07;44.28
78855;BME280;68206;59.956;30.234;2024-01-30T10:04:36;102631.22;;;10.06;44.03
78855;BME280;68206;59.956;30.234;2024-01-30T10:07:05;102627.69;;;10.13;43.84
78855;BME280;68206;59.956;30.234;2024-01-30T10:09:34;102626.81;;;10.14;43.91
78855;BME280;68206;59.956;30.234;2024-01-30T10:12:04;102637.47;;;10.19;43.40
78855;BME280;68206;59.956;30.234;2024-01-30T10:14:32;102631.31;;;10.21;43.74
78855;BME280;68206;59.956;30.234;2024-01-30T10:17:03;102641.91;;;10.23;43.24
78855;BME280;68206;59.956;30.234;2024-01-30T10:19:44;102643.69;;;10.25;43.04
78855;BME280;68206;59.956;30.234;2024-01-30T10:22:12;102637.50;;;10.26;43.16
78855;BME280;68206;59.956;30.234;2024-01-30T10:24:42;102645.47;;;10.28;43.61
78855;BME280;68206;59.956;30.234;2024-01-30T10:27:12;102648.13;;;10.28;43.45
78855;BME280;68206;59.956;30.234;2024-01-30T10:29:40;102641.94;;;10.30;43.61
78855;BME280;68206;59.956;30.234;2024-01-30T10:32:11;102644.59;;;10.30;43.20
78855;BME280;68206;59.956;30.234;2024-01-30T10:34:40;102645.44;;;10.31;44.06
78855;BME280;68206;59.956;30.234;2024-01-30T10:37:10;102646.34;;;10.31;43.23
78855;BME280;68206;59.956;30.234;2024-01-30T10:39:43;102644.59;;;10.30;43.32
78855;BME280;68206;59.956;30.234;2024-01-30T10:42:14;102648.13;;;10.32;43.31
78855;BME280;68206;59.956;30.234;2024-01-30T10:44:48;102645.47;;;10.32;42.91
78855;BME280;68206;59.956;30.234;2024-01-30T10:47:26;102656.06;;;10.32;43.36
78855;BME280;68206;59.956;30.234;2024-01-30T10:49:56;102647.25;;;10.30;43.39
78855;BME280;68206;59.956;30.234;2024-01-30T10:52:25;102650.75;;;10.31;43.46
78855;BME280;68206;59.956;30.234;2024-01-30T10:54:56;102646.34;;;10.33;43.91
78855;BME280;68206;59.956;30.234;2024-01-30T10:57:26;102644.56;;;10.32;43.05
78855;BME280;68206;59.956;30.234;2024-01-30T10:59:56;102652.53;;;10.32;43.21
78855;BME280;68206;59.956;30.234;2024-01-30T11:02:27;102652.53;;;10.32;43.27
78855;BME280;68206;59.956;30.234;2024-01-30T11:04:57;102657.84;;;10.32;43.44
78855;BME280;68206;59.956;30.234;2024-01-30T11:07:29;102653.41;;;10.31;43.27
78855;BME280;68206;59.956;30.234;2024-01-30T11:10:02;102654.28;;;10.31;42.93
78855;BME280;68206;59.956;30.234;2024-01-30T11:12:33;102652.53;;;10.29;43.07
78855;BME280;68206;59.956;30.234;2024-01-30T11:15:03;102648.13;;;10.28;43.44
78855;BME280;68206;59.956;30.234;2024-01-30T11:17:44;102645.47;;;10.28;43.10
78855;BME280;68206;59.956;30.234;2024-01-30T11:20:15;102650.75;;;10.28;43.80
78855;BME280;68206;59.956;30.234;2024-01-30T11:22:45;102649.88;;;10.27;43.03
78855;BME280;68206;59.956;30.234;2024-01-30T11:25:14;102653.41;;;10.28;42.75
78855;BME280;68206;59.956;30.234;2024-01-30T11:27:44;102662.25;;;10.27;43.25
78855;BME280;68206;59.956;30.234;2024-01-30T11:30:21;102657.84;;;10.24;43.48
78855;BME280;68206;59.956;30.234;2024-01-30T11:33:02;102658.72;;;10.23;43.04
78855;BME280;68206;59.956;30.234;2024-01-30T11:35:35;102663.16;;;10.24;42.69
78855;BME280;68206;59.956;30.234;2024-01-30T11:38:04;102659.59;;;10.24;43.40
78855;BME280;68206;59.956;30.234;2024-01-30T11:40:35;102666.69;;;10.23;43.10
78855;BME280;68206;59.956;30.234;2024-01-30T11:43:05;102660.47;;;10.21;42.79
78855;BME280;68206;59.956;30.234;2024-01-30T11:45:35;102654.28;;;10.21;43.00
78855;BME280;68206;59.956;30.234;2024-01-30T11:48:06;102649.88;;;10.21;43.24
78855;BME280;68206;59.956;30.234;2024-01-30T11:50:39;102653.38;;;10.20;42.90
78855;BME280;68206;59.956;30.234;2024-01-30T11:53:08;102648.97;;;10.18;43.18
78855;BME280;68206;59.956;30.234;2024-01-30T11:55:37;102653.38;;;10.19;43.06
78855;BME280;68206;59.956;30.234;2024-01-30T11:58:06;102648.06;;;10.19;42.88
78855;BME280;68206;59.956;30.234;2024-01-30T12:00:34;102651.63;;;10.18;43.35
78855;BME280;68206;59.956;30.234;2024-01-30T12:03:03;102653.38;;;10.19;43.54
78855;BME280;68206;59.956;30.234;2024-01-30T12:05:35;102647.22;;;10.17;43.23
78855;BME280;68206;59.956;30.234;2024-01-30T12:08:06;102644.56;;;10.17;43.35
78855;BME280;68206;59.956;30.234;2024-01-30T12:10:35;102650.69;;;10.16;42.79
78855;BME280;68206;59.956;30.234;2024-01-30T12:13:03;102646.28;;;10.15;42.69
78855;BME280;68206;59.956;30.234;2024-01-30T12:15:32;102640.97;;;10.15;43.14
78855;BME280;68206;59.956;30.234;2024-01-30T12:18:05;102644.50;;;10.13;43.16
78855;BME280;68206;59.956;30.234;2024-01-30T12:20:36;102642.75;;;10.11;43.60
78855;BME280;68206;59.956;30.234;2024-01-30T12:23:04;102648.03;;;10.14;43.24
78855;BME280;68206;59.956;30.234;2024-01-30T12:25:33;102641.84;;;10.12;43.18
78855;BME280;68206;59.956;30.234;2024-01-30T12:28:02;102636.53;;;10.12;43.23
78855;BME280;68206;59.956;30.234;2024-01-30T12:30:31;102642.75;;;10.11;43.35
78855;BME280;68206;59.956;30.234;2024-01-30T12:33:00;102636.53;;;10.09;43.83
78855;BME280;68206;59.956;30.234;2024-01-30T12:35:29;102642.75;;;10.11;42.96
78855;BME280;68206;59.956;30.234;2024-01-30T12:38:02;102641.81;;;10.07;43.19
78855;BME280;68206;59.956;30.234;2024-01-30T12:40:33;102631.22;;;10.06;43.35
78855;BME280;68206;59.956;30.234;2024-01-30T12:43:05;102637.41;;;10.05;43.39
78855;BME280;68206;59.956;30.234;2024-01-30T12:45:33;102639.19;;;10.04;43.39
78855;BME280;68206;59.956;30.234;2024-01-30T12:48:02;102635.63;;;10.02;42.69
78855;BME280;68206;59.956;30.234;2024-01-30T12:50:31;102633.84;;;10.01;43.20
78855;BME280;68206;59.956;30.234;2024-01-30T12:53:01;102640.03;;;10.00;43.34
78855;BME280;68206;59.956;30.234;2024-01-30T12:55:30;102631.19;;;10.00;43.15
78855;BME280;68206;59.956;30.234;2024-01-30T12:57:58;102640.91;;;9.99;43.73